Terminal Aerodrome Forecast
Issued by NWS Green Bay, WI

Home | Current Version | Previous Version | Graphics & Text | Print | Product List | Glossary On
Versions: 1 2 3 4 5 6 7 8 9 10 11 12 13 14 15 16 17 18 19 20 21 22 23 24 25 26 27 28 29 30
000
FTUS43 KGRB 260915 AAB
TAFGRB
TAF AMD
KGRB 260915Z 2609/2706 18005KT 1 1/2SM BR OVC003
      TEMPO 2610/2612 1/4SM FG VV002
     FM261400 21010G17KT P6SM SCT025 BKN040
     FM262300 16007KT P6SM SCT045 BKN250=

USA.gov is the U.S. government's official web portal to all federal, state and local government web resources and services.